sensor_id;sensor_type;location;lat;lon;timestamp;pressure;altitude;pressure_sealevel;temperature;humidity
61571;BME280;47463;49.884;10.010;2023-04-05T00:00:01;102709.99999999999;;;-0.1;68
61571;BME280;47463;49.884;10.010;2023-04-05T00:05:01;102709.99999999999;;;-0.1;68
61571;BME280;47463;49.884;10.010;2023-04-05T00:10:01;102700;;;-0.1;68
61571;BME280;47463;49.884;10.010;2023-04-05T00:15:01;102709.99999999999;;;-0.1;68
61571;BME280;47463;49.884;10.010;2023-04-05T00:20:01;102690.00000000001;;;-0.1;68
61571;BME280;47463;49.884;10.010;2023-04-05T00:25:01;102680;;;-0.2;69
61571;BME280;47463;49.884;10.010;2023-04-05T00:30:01;102680;;;-0.4;69
61571;BME280;47463;49.884;10.010;2023-04-05T00:35:01;102670;;;-0.4;69
61571;BME280;47463;49.884;10.010;2023-04-05T00:40:01;102670;;;-0.5;70
61571;BME280;47463;49.884;10.010;2023-04-05T00:45:01;102670;;;-0.5;70
61571;BME280;47463;49.884;10.010;2023-04-05T00:50:01;102650;;;-0.7;70
61571;BME280;47463;49.884;10.010;2023-04-05T00:55:01;102650;;;-0.9;72
61571;BME280;47463;49.884;10.010;2023-04-05T01:00:01;102659.99999999999;;;-0.9;72
61571;BME280;47463;49.884;10.010;2023-04-05T01:05:01;102650;;;-0.9;71
61571;BME280;47463;49.884;10.010;2023-04-05T01:10:01;102640.00000000001;;;-0.8;71
61571;BME280;47463;49.884;10.010;2023-04-05T01:15:01;102640.00000000001;;;-0.8;71
61571;BME280;47463;49.884;10.010;2023-04-05T01:20:02;102640.00000000001;;;-0.9;71
61571;BME280;47463;49.884;10.010;2023-04-05T01:25:08;102640.00000000001;;;-1.1;72
61571;BME280;47463;49.884;10.010;2023-04-05T01:30:03;102640.00000000001;;;-1.2;73
61571;BME280;47463;49.884;10.010;2023-04-05T01:35:03;102640.00000000001;;;-1.2;73
61571;BME280;47463;49.884;10.010;2023-04-05T01:40:01;102630;;;-1.1;73
61571;BME280;47463;49.884;10.010;2023-04-05T01:45:01;102630;;;-1.1;72
61571;BME280;47463;49.884;10.010;2023-04-05T01:50:01;102620;;;-1.1;72
61571;BME280;47463;49.884;10.010;2023-04-05T01:55:01;102620;;;-1.2;72
61571;BME280;47463;49.884;10.010;2023-04-05T02:00:01;102620;;;-1.3;73
61571;BME280;47463;49.884;10.010;2023-04-05T02:05:01;102620;;;-1.3;73
61571;BME280;47463;49.884;10.010;2023-04-05T02:10:01;102609.99999999999;;;-1.3;73
61571;BME280;47463;49.884;10.010;2023-04-05T02:15:01;102609.99999999999;;;-1.3;73
61571;BME280;47463;49.884;10.010;2023-04-05T02:20:01;102609.99999999999;;;-1.3;73
61571;BME280;47463;49.884;10.010;2023-04-05T02:25:01;102620;;;-1.3;73
61571;BME280;47463;49.884;10.010;2023-04-05T02:30:01;102609.99999999999;;;-1.3;73
61571;BME280;47463;49.884;10.010;2023-04-05T02:35:01;102609.99999999999;;;-1.2;73
61571;BME280;47463;49.884;10.010;2023-04-05T02:40:01;102609.99999999999;;;-1.2;72
61571;BME280;47463;49.884;10.010;2023-04-05T02:45:01;102620;;;-1.2;73
61571;BME280;47463;49.884;10.010;2023-04-05T02:50:01;102609.99999999999;;;-1.3;73
61571;BME280;47463;49.884;10.010;2023-04-05T02:55:01;102609.99999999999;;;-1.2;73
61571;BME280;47463;49.884;10.010;2023-04-05T03:00:01;102600;;;-1.2;72
61571;BME280;47463;49.884;10.010;2023-04-05T03:05:01;102609.99999999999;;;-1.2;72
61571;BME280;47463;49.884;10.010;2023-04-05T03:10:01;102600;;;-1.3;72
61571;BME280;47463;49.884;10.010;2023-04-05T03:15:01;102609.99999999999;;;-1.3;73
61571;BME280;47463;49.884;10.010;2023-04-05T03:20:01;102600;;;-1.3;73
61571;BME280;47463;49.884;10.010;2023-04-05T03:25:01;102600;;;-1.3;73
61571;BME280;47463;49.884;10.010;2023-04-05T03:30:01;102609.99999999999;;;-1.4;73
61571;BME280;47463;49.884;10.010;2023-04-05T03:35:01;102609.99999999999;;;-1.4;73
61571;BME280;47463;49.884;10.010;2023-04-05T03:40:01;102609.99999999999;;;-1.4;73
61571;BME280;47463;49.884;10.010;2023-04-05T03:45:01;102600;;;-1.4;73
61571;BME280;47463;49.884;10.010;2023-04-05T03:50:01;102620;;;-1.5;73
61571;BME280;47463;49.884;10.010;2023-04-05T03:55:01;102620;;;-1.5;73
61571;BME280;47463;49.884;10.010;2023-04-05T04:00:01;102620;;;-1.5;73
61571;BME280;47463;49.884;10.010;2023-04-05T04:05:01;102609.99999999999;;;-1.5;73
61571;BME280;47463;49.884;10.010;2023-04-05T04:10:01;102609.99999999999;;;-1.6;74
61571;BME280;47463;49.884;10.010;2023-04-05T04:15:01;102600;;;-1.7;74
61571;BME280;47463;49.884;10.010;2023-04-05T04:20:01;102600;;;-1.8;75
61571;BME280;47463;49.884;10.010;2023-04-05T04:25:01;102600;;;-1.9;75
61571;BME280;47463;49.884;10.010;2023-04-05T04:30:01;102600;;;-1.9;76
61571;BME280;47463;49.884;10.010;2023-04-05T04:35:01;102600;;;-1.9;76
61571;BME280;47463;49.884;10.010;2023-04-05T04:40:01;102600;;;-2;76
61571;BME280;47463;49.884;10.010;2023-04-05T04:45:01;102609.99999999999;;;-2.1;76
61571;BME280;47463;49.884;10.010;2023-04-05T04:50:01;102600;;;-2.1;77
61571;BME280;47463;49.884;10.010;2023-04-05T04:55:01;102600;;;-2.2;77
61571;BME280;47463;49.884;10.010;2023-04-05T05:00:01;102600;;;-2.3;78
61571;BME280;47463;49.884;10.010;2023-04-05T05:05:01;102600;;;-2.2;78
61571;BME280;47463;49.884;10.010;2023-04-05T05:10:01;102600;;;-2.1;77
61571;BME280;47463;49.884;10.010;2023-04-05T05:15:01;102609.99999999999;;;-1.8;76
61571;BME280;47463;49.884;10.010;2023-04-05T05:20:01;102609.99999999999;;;-1.7;76
61571;BME280;47463;49.884;10.010;2023-04-05T05:25:01;102620;;;-1.6;76
61571;BME280;47463;49.884;10.010;2023-04-05T05:30:01;102620;;;-1.5;75
61571;BME280;47463;49.884;10.010;2023-04-05T05:35:01;102620;;;-1.4;75
61571;BME280;47463;49.884;10.010;2023-04-05T05:40:01;102609.99999999999;;;-1.3;75
61571;BME280;47463;49.884;10.010;2023-04-05T05:45:02;102620;;;-1.2;74
61571;BME280;47463;49.884;10.010;2023-04-05T05:50:01;102620;;;-1.1;74
61571;BME280;47463;49.884;10.010;2023-04-05T05:55:01;102620;;;-0.7;74
61571;BME280;47463;49.884;10.010;2023-04-05T06:00:01;102619.9999;;;-0.5;73
61571;BME280;47463;49.884;10.010;2023-04-05T06:05:01;102620;;;-0.4;72
61571;BME280;47463;49.884;10.010;2023-04-05T06:15:01;102620;;;-0.3;72
61571;BME280;47463;49.884;10.010;2023-04-05T06:20:01;102609.99999999999;;;-0.1;72
61571;BME280;47463;49.884;10.010;2023-04-05T06:25:01;102620;;;0.1;71
61571;BME280;47463;49.884;10.010;2023-04-05T06:30:01;102630;;;0.2;70
61571;BME280;47463;49.884;10.010;2023-04-05T06:35:01;102630;;;0.4;70
61571;BME280;47463;49.884;10.010;2023-04-05T06:40:01;102630;;;0.2;70
61571;BME280;47463;49.884;10.010;2023-04-05T06:45:01;102630;;;0.3;71
61571;BME280;47463;49.884;10.010;2023-04-05T06:50:01;102620;;;0.2;71
61571;BME280;47463;49.884;10.010;2023-04-05T06:55:01;102620;;;0.4;71
61571;BME280;47463;49.884;10.010;2023-04-05T07:00:01;102620;;;0.5;70
61571;BME280;47463;49.884;10.010;2023-04-05T07:05:01;102620;;;0.7;70
61571;BME280;47463;49.884;10.010;2023-04-05T07:10:01;102620;;;1;68
61571;BME280;47463;49.884;10.010;2023-04-05T07:15:01;102630;;;0.9;69
61571;BME280;47463;49.884;10.010;2023-04-05T07:20:01;102620;;;0.9;69
61571;BME280;47463;49.884;10.010;2023-04-05T07:25:01;102620;;;1.1;69
61571;BME280;47463;49.884;10.010;2023-04-05T07:30:01;102620;;;1.6;68
61571;BME280;47463;49.884;10.010;2023-04-05T07:35:01;102600;;;1.6;67
61571;BME280;47463;49.884;10.010;2023-04-05T07:40:01;102609.99999999999;;;1.9;67
61571;BME280;47463;49.884;10.010;2023-04-05T07:45:01;102609.99999999999;;;1.6;66
61571;BME280;47463;49.884;10.010;2023-04-05T07:50:01;102620;;;1.8;66
61571;BME280;47463;49.884;10.010;2023-04-05T07:55:01;102609.99999999999;;;2.2;65
61571;BME280;47463;49.884;10.010;2023-04-05T08:00:01;102609.99999999999;;;2.2;65
61571;BME280;47463;49.884;10.010;2023-04-05T08:05:01;102609.99999999999;;;2.5;64
61571;BME280;47463;49.884;10.010;2023-04-05T08:10:01;102620;;;2.4;64
61571;BME280;47463;49.884;10.010;2023-04-05T08:15:02;102609.99999999999;;;2.3;63
61571;BME280;47463;49.884;10.010;2023-04-05T08:20:01;102609.99999999999;;;3;60
61571;BME280;47463;49.884;10.010;2023-04-05T08:25:01;102600;;;3.4;60
61571;BME280;47463;49.884;10.010;2023-04-05T08:30:01;102609.99999999999;;;3.8;59
61571;BME280;47463;49.884;10.010;2023-04-05T08:35:01;102590.00000000001;;;3.4;57
61571;BME280;47463;49.884;10.010;2023-04-05T08:40:01;102590.00000000001;;;3.8;55
61571;BME280;47463;49.884;10.010;2023-04-05T08:45:01;102590.00000000001;;;4;55
61571;BME280;47463;49.884;10.010;2023-04-05T08:50:01;102570;;;3.7;55
61571;BME280;47463;49.884;10.010;2023-04-05T08:55:01;102580;;;4.2;54
61571;BME280;47463;49.884;10.010;2023-04-05T09:00:01;102570;;;4.1;54
61571;BME280;47463;49.884;10.010;2023-04-05T09:05:01;102570;;;4.1;52
61571;BME280;47463;49.884;10.010;2023-04-05T09:10:01;102550;;;4.3;52
61571;BME280;47463;49.884;10.010;2023-04-05T09:15:01;102550;;;4.3;52
61571;BME280;47463;49.884;10.010;2023-04-05T09:20:01;102559.99999999999;;;4.2;52
61571;BME280;47463;49.884;10.010;2023-04-05T09:25:01;102559.99999999999;;;4.3;53
61571;BME280;47463;49.884;10.010;2023-04-05T09:30:01;102559.99999999999;;;4.6;52
61571;BME280;47463;49.884;10.010;2023-04-05T09:35:01;102550;;;5;52
61571;BME280;47463;49.884;10.010;2023-04-05T09:40:01;102550;;;5.1;51
61571;BME280;47463;49.884;10.010;2023-04-05T09:45:01;102550;;;4.9;51
61571;BME280;47463;49.884;10.010;2023-04-05T09:50:01;102540.00000000001;;;4.6;49
61571;BME280;47463;49.884;10.010;2023-04-05T09:55:01;102530;;;5;49
61571;BME280;47463;49.884;10.010;2023-04-05T10:00:01;102530;;;5;49
61571;BME280;47463;49.884;10.010;2023-04-05T10:10:01;102529.99990000001;;;5.1;50
61571;BME280;47463;49.884;10.010;2023-04-05T10:15:01;102520;;;6.1;48
61571;BME280;47463;49.884;10.010;2023-04-05T10:20:05;102509.99999999999;;;6.4;47
61571;BME280;47463;49.884;10.010;2023-04-05T10:25:04;102509.99999999999;;;6.5;47
61571;BME280;47463;49.884;10.010;2023-04-05T10:30:03;102509.99999999999;;;6.9;46
61571;BME280;47463;49.884;10.010;2023-04-05T10:35:03;102509.99999999999;;;6.1;46
61571;BME280;47463;49.884;10.010;2023-04-05T10:40:01;102500;;;5.7;47
61571;BME280;47463;49.884;10.010;2023-04-05T10:45:01;102490.00000000001;;;6.1;48
61571;BME280;47463;49.884;10.010;2023-04-05T10:50:02;102480;;;5.7;48
61571;BME280;47463;49.884;10.010;2023-04-05T10:55:01;102480;;;5.3;49
61571;BME280;47463;49.884;10.010;2023-04-05T11:00:01;102470;;;5.4;49
61571;BME280;47463;49.884;10.010;2023-04-05T11:05:02;102470;;;5.6;48
61571;BME280;47463;49.884;10.010;2023-04-05T11:10:01;102480;;;6.2;46
61571;BME280;47463;49.884;10.010;2023-04-05T11:15:23;102470;;;7;45
61571;BME280;47463;49.884;10.010;2023-04-05T11:20:01;102459.99999999999;;;6.9;44
61571;BME280;47463;49.884;10.010;2023-04-05T11:25:01;102450;;;6.9;44
61571;BME280;47463;49.884;10.010;2023-04-05T11:30:01;102459.99999999999;;;6.7;44
61571;BME280;47463;49.884;10.010;2023-04-05T11:35:04;102440.00000000001;;;6.6;44
61571;BME280;47463;49.884;10.010;2023-04-05T11:40:22;102450;;;6.3;44
61571;BME280;47463;49.884;10.010;2023-04-05T11:45:01;102430;;;6.4;44
61571;BME280;47463;49.884;10.010;2023-04-05T11:50:01;102430;;;7.3;45
61571;BME280;47463;49.884;10.010;2023-04-05T11:55:01;102420;;;7.3;44
61571;BME280;47463;49.884;10.010;2023-04-05T12:00:01;102420;;;6.9;43
61571;BME280;47463;49.884;10.010;2023-04-05T12:05:01;102420;;;6.7;43
61571;BME280;47463;49.884;10.010;2023-04-05T12:10:02;102420;;;7.3;42
61571;BME280;47463;49.884;10.010;2023-04-05T12:15:01;102409.99999999999;;;7.3;43
61571;BME280;47463;49.884;10.010;2023-04-05T12:20:01;102400;;;7.1;42
61571;BME280;47463;49.884;10.010;2023-04-05T12:25:01;102409.99999999999;;;6.5;43
61571;BME280;47463;49.884;10.010;2023-04-05T12:30:04;102390;;;6.4;43
61571;BME280;47463;49.884;10.010;2023-04-05T12:35:04;102380;;;6.5;43
61571;BME280;47463;49.884;10.010;2023-04-05T12:40:01;102380;;;7.1;43
61571;BME280;47463;49.884;10.010;2023-04-05T12:45:01;102380;;;7.6;43
61571;BME280;47463;49.884;10.010;2023-04-05T12:50:09;102380;;;7.4;44
61571;BME280;47463;49.884;10.010;2023-04-05T12:55:01;102370;;;8;42
61571;BME280;47463;49.884;10.010;2023-04-05T13:00:01;102360;;;7.9;41
61571;BME280;47463;49.884;10.010;2023-04-05T13:05:01;102360;;;8;40
61571;BME280;47463;49.884;10.010;2023-04-05T13:10:01;102350;;;8.4;41
61571;BME280;47463;49.884;10.010;2023-04-05T13:15:01;102350;;;8.2;39
61571;BME280;47463;49.884;10.010;2023-04-05T13:20:01;102340;;;8.7;39
61571;BME280;47463;49.884;10.010;2023-04-05T13:25:01;102340;;;8.3;39
61571;BME280;47463;49.884;10.010;2023-04-05T13:30:01;102330;;;7.8;39
61571;BME280;47463;49.884;10.010;2023-04-05T13:35:01;102320;;;7.9;39
61571;BME280;47463;49.884;10.010;2023-04-05T13:40:01;102310;;;7.7;39
61571;BME280;47463;49.884;10.010;2023-04-05T13:45:01;102310;;;8;38
61571;BME280;47463;49.884;10.010;2023-04-05T13:50:01;102300;;;7.8;37
61571;BME280;47463;49.884;10.010;2023-04-05T13:55:01;102300;;;7.6;37
61571;BME280;47463;49.884;10.010;2023-04-05T14:00:01;102300;;;7.6;36
61571;BME280;47463;49.884;10.010;2023-04-05T14:05:01;102290;;;8.3;36
61571;BME280;47463;49.884;10.010;2023-04-05T14:10:01;102280;;;7.8;37
61571;BME280;47463;49.884;10.010;2023-04-05T14:15:01;102290;;;7.6;36
61571;BME280;47463;49.884;10.010;2023-04-05T14:20:01;102290;;;7.6;37
61571;BME280;47463;49.884;10.010;2023-04-05T14:25:01;102270;;;7.7;37
61571;BME280;47463;49.884;10.010;2023-04-05T14:30:01;102270;;;7.6;37
61571;BME280;47463;49.884;10.010;2023-04-05T14:35:01;102270;;;7.8;37
61571;BME280;47463;49.884;10.010;2023-04-05T14:40:01;102260;;;8.3;36
61571;BME280;47463;49.884;10.010;2023-04-05T14:45:01;102260;;;7.9;36
61571;BME280;47463;49.884;10.010;2023-04-05T14:50:01;102250;;;7.8;36
61571;BME280;47463;49.884;10.010;2023-04-05T14:55:01;102250;;;7.8;36
61571;BME280;47463;49.884;10.010;2023-04-05T15:00:01;102250;;;7.8;37
61571;BME280;47463;49.884;10.010;2023-04-05T15:05:01;102240;;;7.4;38
61571;BME280;47463;49.884;10.010;2023-04-05T15:10:01;102240;;;7.4;38
61571;BME280;47463;49.884;10.010;2023-04-05T15:15:01;102230;;;7.5;38
61571;BME280;47463;49.884;10.010;2023-04-05T15:20:01;102240;;;7.9;37
61571;BME280;47463;49.884;10.010;2023-04-05T15:25:01;102240;;;8;36
61571;BME280;47463;49.884;10.010;2023-04-05T15:30:01;102230;;;8.2;37
61571;BME280;47463;49.884;10.010;2023-04-05T15:35:01;102220;;;8.7;36
61571;BME280;47463;49.884;10.010;2023-04-05T15:40:01;102220;;;8.1;37
61571;BME280;47463;49.884;10.010;2023-04-05T15:45:01;102220;;;7.8;37
61571;BME280;47463;49.884;10.010;2023-04-05T15:50:01;102220;;;7.8;37
61571;BME280;47463;49.884;10.010;2023-04-05T15:55:01;102220;;;7.5;37
61571;BME280;47463;49.884;10.010;2023-04-05T16:00:01;102220;;;7.2;37
61571;BME280;47463;49.884;10.010;2023-04-05T16:05:01;102230;;;7.5;37
61571;BME280;47463;49.884;10.010;2023-04-05T16:10:01;102220;;;7.3;37
61571;BME280;47463;49.884;10.010;2023-04-05T16:15:01;102230;;;7.4;38
61571;BME280;47463;49.884;10.010;2023-04-05T16:20:01;102220;;;7.5;37
61571;BME280;47463;49.884;10.010;2023-04-05T16:25:01;102220;;;7.5;38
61571;BME280;47463;49.884;10.010;2023-04-05T16:30:01;102230;;;7.5;37
61571;BME280;47463;49.884;10.010;2023-04-05T16:35:01;102220;;;7.8;36
61571;BME280;47463;49.884;10.010;2023-04-05T16:40:01;102220;;;7.8;36
61571;BME280;47463;49.884;10.010;2023-04-05T16:45:01;102220;;;7.7;38
61571;BME280;47463;49.884;10.010;2023-04-05T16:50:01;102220;;;7.6;38
61571;BME280;47463;49.884;10.010;2023-04-05T16:55:01;102220;;;7.7;39
61571;BME280;47463;49.884;10.010;2023-04-05T17:00:01;102220;;;7.6;39
61571;BME280;47463;49.884;10.010;2023-04-05T17:05:01;102220;;;7.6;38
61571;BME280;47463;49.884;10.010;2023-04-05T17:10:01;102210;;;7.6;38
61571;BME280;47463;49.884;10.010;2023-04-05T17:15:01;102220;;;7.4;38
61571;BME280;47463;49.884;10.010;2023-04-05T17:20:01;102200;;;7.3;38
61571;BME280;47463;49.884;10.010;2023-04-05T17:25:01;102210;;;7.3;40
61571;BME280;47463;49.884;10.010;2023-04-05T17:30:01;102210;;;7.1;40
61571;BME280;47463;49.884;10.010;2023-04-05T17:35:01;102220;;;6.8;42
61571;BME280;47463;49.884;10.010;2023-04-05T17:40:01;102210;;;6.6;43
61571;BME280;47463;49.884;10.010;2023-04-05T17:45:01;102220;;;6.3;47
61571;BME280;47463;49.884;10.010;2023-04-05T17:50:01;102210;;;5.5;50
61571;BME280;47463;49.884;10.010;2023-04-05T17:55:01;102210;;;5.1;51
61571;BME280;47463;49.884;10.010;2023-04-05T18:00:01;102210;;;4.8;51
61571;BME280;47463;49.884;10.010;2023-04-05T18:05:01;102210;;;4.5;52
61571;BME280;47463;49.884;10.010;2023-04-05T18:10:01;102210;;;4.1;53
61571;BME280;47463;49.884;10.010;2023-04-05T18:15:01;102220;;;3.8;54
61571;BME280;47463;49.884;10.010;2023-04-05T18:20:01;102220;;;3.6;55
61571;BME280;47463;49.884;10.010;2023-04-05T18:25:01;102230;;;3.4;55
61571;BME280;47463;49.884;10.010;2023-04-05T18:30:01;102230;;;3.2;55
61571;BME280;47463;49.884;10.010;2023-04-05T18:35:01;102230;;;2.9;56
61571;BME280;47463;49.884;10.010;2023-04-05T18:40:01;102230;;;2.6;58
61571;BME280;47463;49.884;10.010;2023-04-05T18:45:01;102230;;;2.3;58
61571;BME280;47463;49.884;10.010;2023-04-05T18:50:01;102250;;;2.3;58
61571;BME280;47463;49.884;10.010;2023-04-05T18:55:01;102250;;;2;59
61571;BME280;47463;49.884;10.010;2023-04-05T19:00:01;102250;;;1.9;60
61571;BME280;47463;49.884;10.010;2023-04-05T19:05:01;102250;;;1.8;61
61571;BME280;47463;49.884;10.010;2023-04-05T19:10:01;102260;;;1.7;61
61571;BME280;47463;49.884;10.010;2023-04-05T19:15:01;102260;;;1.5;62
61571;BME280;47463;49.884;10.010;2023-04-05T19:20:01;102260;;;1.5;62
61571;BME280;47463;49.884;10.010;2023-04-05T19:25:01;102260;;;1.2;63
61571;BME280;47463;49.884;10.010;2023-04-05T19:30:01;102260;;;1.2;63
61571;BME280;47463;49.884;10.010;2023-04-05T19:35:01;102270;;;0.9;64
61571;BME280;47463;49.884;10.010;2023-04-05T19:40:01;102260;;;0.9;64
61571;BME280;47463;49.884;10.010;2023-04-05T19:45:01;102270;;;0.9;64
61571;BME280;47463;49.884;10.010;2023-04-05T19:50:01;102260;;;0.9;64
61571;BME280;47463;49.884;10.010;2023-04-05T19:55:01;102270;;;1;63
61571;BME280;47463;49.884;10.010;2023-04-05T20:00:01;102260;;;0.7;65
61571;BME280;47463;49.884;10.010;2023-04-05T20:05:01;102270;;;0.7;65
61571;BME280;47463;49.884;10.010;2023-04-05T20:10:01;102270;;;0.6;65
61571;BME280;47463;49.884;10.010;2023-04-05T20:15:01;102280;;;0.6;65
61571;BME280;47463;49.884;10.010;2023-04-05T20:20:01;102280;;;0.5;65
61571;BME280;47463;49.884;10.010;2023-04-05T20:25:01;102280;;;0.4;65
61571;BME280;47463;49.884;10.010;2023-04-05T20:30:01;102280;;;0.3;66
61571;BME280;47463;49.884;10.010;2023-04-05T20:35:01;102280;;;0.3;66
61571;BME280;47463;49.884;10.010;2023-04-05T20:40:01;102280;;;0.2;65
61571;BME280;47463;49.884;10.010;2023-04-05T20:45:01;102280;;;0.2;65
61571;BME280;47463;49.884;10.010;2023-04-05T20:50:01;102280;;;0.1;65
61571;BME280;47463;49.884;10.010;2023-04-05T20:55:01;102280;;;0.1;65
61571;BME280;47463;49.884;10.010;2023-04-05T21:00:01;102270;;;0.1;65
61571;BME280;47463;49.884;10.010;2023-04-05T21:05:01;102270;;;0.1;64
61571;BME280;47463;49.884;10.010;2023-04-05T21:10:01;102270;;;0.1;64
61571;BME280;47463;49.884;10.010;2023-04-05T21:15:01;102280;;;0.1;65
61571;BME280;47463;49.884;10.010;2023-04-05T21:20:01;102280;;;0.1;65
61571;BME280;47463;49.884;10.010;2023-04-05T21:25:01;102270;;;0.1;64
61571;BME280;47463;49.884;10.010;2023-04-05T21:30:01;102290;;;0.1;65
61571;BME280;47463;49.884;10.010;2023-04-05T21:35:01;102290;;;0.1;65
61571;BME280;47463;49.884;10.010;2023-04-05T21:40:01;102290;;;-0.2;66
61571;BME280;47463;49.884;10.010;2023-04-05T21:45:01;102300;;;-0.3;66
61571;BME280;47463;49.884;10.010;2023-04-05T21:50:01;102290;;;-0.2;66
61571;BME280;47463;49.884;10.010;2023-04-05T21:55:01;102290;;;-0.2;66
61571;BME280;47463;49.884;10.010;2023-04-05T22:00:01;102290;;;-0.3;67
61571;BME280;47463;49.884;10.010;2023-04-05T22:05:01;102290;;;-0.3;67
61571;BME280;47463;49.884;10.010;2023-04-05T22:10:01;102290;;;-0.4;67
61571;BME280;47463;49.884;10.010;2023-04-05T22:15:01;102290;;;-0.3;67
61571;BME280;47463;49.884;10.010;2023-04-05T22:20:01;102290;;;-0.4;67
61571;BME280;47463;49.884;10.010;2023-04-05T22:25:01;102290;;;-0.4;67
61571;BME280;47463;49.884;10.010;2023-04-05T22:30:01;102290;;;-0.3;66
61571;BME280;47463;49.884;10.010;2023-04-05T22:35:01;102300;;;-0.4;67
61571;BME280;47463;49.884;10.010;2023-04-05T22:40:01;102300;;;-0.3;66
61571;BME280;47463;49.884;10.010;2023-04-05T22:45:01;102300;;;-0.4;68
61571;BME280;47463;49.884;10.010;2023-04-05T22:50:01;102290;;;-0.5;67
61571;BME280;47463;49.884;10.010;2023-04-05T22:55:01;102290;;;-0.4;67
61571;BME280;47463;49.884;10.010;2023-04-05T23:00:01;102290;;;-0.3;68
61571;BME280;47463;49.884;10.010;2023-04-05T23:05:01;102300;;;-0.2;67
61571;BME280;47463;49.884;10.010;2023-04-05T23:10:01;102310;;;-0.2;67
61571;BME280;47463;49.884;10.010;2023-04-05T23:15:01;102290;;;-0.2;66
61571;BME280;47463;49.884;10.010;2023-04-05T23:20:01;102290;;;-0.2;66
61571;BME280;47463;49.884;10.010;2023-04-05T23:25:01;102290;;;0.1;65
61571;BME280;47463;49.884;10.010;2023-04-05T23:30:01;102290;;;-0.1;66
61571;BME280;47463;49.884;10.010;2023-04-05T23:35:01;102290;;;-0.3;67
61571;BME280;47463;49.884;10.010;2023-04-05T23:40:01;102290;;;-0.3;68
61571;BME280;47463;49.884;10.010;2023-04-05T23:45:01;102290;;;-0.3;68
61571;BME280;47463;49.884;10.010;2023-04-05T23:50:01;102290;;;-0.5;69
61571;BME280;47463;49.884;10.010;2023-04-05T23:55:01;102290;;;-0.6;70
